sensor_id;sensor_type;location;lat;lon;timestamp;P1;durP1;ratioP1;P2;durP2;ratioP2
14472;SDS011;7322;50.872;4.386;2024-01-25T00:01:29;12.83;;;4.10;;
14472;SDS011;7322;50.872;4.386;2024-01-25T00:03:56;10.07;;;3.60;;
14472;SDS011;7322;50.872;4.386;2024-01-25T00:06:24;12.03;;;4.60;;
14472;SDS011;7322;50.872;4.386;2024-01-25T00:08:54;10.53;;;4.40;;
14472;SDS011;7322;50.872;4.386;2024-01-25T00:11:21;9.63;;;3.97;;
14472;SDS011;7322;50.872;4.386;2024-01-25T00:13:48;12.70;;;4.67;;
14472;SDS011;7322;50.872;4.386;2024-01-25T00:16:15;11.13;;;4.60;;
14472;SDS011;7322;50.872;4.386;2024-01-25T00:18:43;9.50;;;3.83;;
14472;SDS011;7322;50.872;4.386;2024-01-25T00:21:10;11.73;;;4.40;;
14472;SDS011;7322;50.872;4.386;2024-01-25T00:23:43;7.83;;;3.73;;
14472;SDS011;7322;50.872;4.386;2024-01-25T00:26:12;12.67;;;4.20;;
14472;SDS011;7322;50.872;4.386;2024-01-25T00:28:39;12.47;;;4.03;;
14472;SDS011;7322;50.872;4.386;2024-01-25T00:31:07;12.97;;;4.20;;
14472;SDS011;7322;50.872;4.386;2024-01-25T00:33:40;9.73;;;4.17;;
14472;SDS011;7322;50.872;4.386;2024-01-25T00:36:07;9.87;;;4.20;;
14472;SDS011;7322;50.872;4.386;2024-01-25T00:38:36;12.37;;;3.87;;
14472;SDS011;7322;50.872;4.386;2024-01-25T00:41:04;9.20;;;3.83;;
14472;SDS011;7322;50.872;4.386;2024-01-25T00:43:36;8.97;;;3.70;;
14472;SDS011;7322;50.872;4.386;2024-01-25T00:46:05;10.57;;;4.40;;
14472;SDS011;7322;50.872;4.386;2024-01-25T00:48:34;10.87;;;4.20;;
14472;SDS011;7322;50.872;4.386;2024-01-25T00:51:01;9.77;;;4.10;;
14472;SDS011;7322;50.872;4.386;2024-01-25T00:53:32;14.07;;;5.00;;
14472;SDS011;7322;50.872;4.386;2024-01-25T00:56:00;12.17;;;4.37;;
14472;SDS011;7322;50.872;4.386;2024-01-25T00:58:28;10.47;;;4.03;;
14472;SDS011;7322;50.872;4.386;2024-01-25T01:00:57;9.77;;;4.13;;
14472;SDS011;7322;50.872;4.386;2024-01-25T01:03:25;10.77;;;3.70;;
14472;SDS011;7322;50.872;4.386;2024-01-25T01:05:52;10.00;;;3.90;;
14472;SDS011;7322;50.872;4.386;2024-01-25T01:08:20;11.03;;;3.93;;
14472;SDS011;7322;50.872;4.386;2024-01-25T01:10:47;7.90;;;3.60;;
14472;SDS011;7322;50.872;4.386;2024-01-25T01:13:15;10.37;;;3.90;;
14472;SDS011;7322;50.872;4.386;2024-01-25T01:15:43;10.73;;;4.17;;
14472;SDS011;7322;50.872;4.386;2024-01-25T01:18:12;10.20;;;4.33;;
14472;SDS011;7322;50.872;4.386;2024-01-25T01:20:39;9.27;;;3.80;;
14472;SDS011;7322;50.872;4.386;2024-01-25T01:23:07;9.60;;;4.50;;
14472;SDS011;7322;50.872;4.386;2024-01-25T01:25:35;8.27;;;4.00;;
14472;SDS011;7322;50.872;4.386;2024-01-25T01:28:08;9.67;;;4.30;;
14472;SDS011;7322;50.872;4.386;2024-01-25T01:30:37;11.17;;;3.87;;
14472;SDS011;7322;50.872;4.386;2024-01-25T01:33:08;11.70;;;4.00;;
14472;SDS011;7322;50.872;4.386;2024-01-25T01:35:43;9.73;;;3.73;;
14472;SDS011;7322;50.872;4.386;2024-01-25T01:38:10;11.43;;;4.27;;
14472;SDS011;7322;50.872;4.386;2024-01-25T01:40:36;10.03;;;3.83;;
14472;SDS011;7322;50.872;4.386;2024-01-25T01:43:05;9.00;;;3.80;;
14472;SDS011;7322;50.872;4.386;2024-01-25T01:45:32;10.87;;;4.37;;
14472;SDS011;7322;50.872;4.386;2024-01-25T01:48:00;10.30;;;3.80;;
14472;SDS011;7322;50.872;4.386;2024-01-25T01:50:29;9.83;;;4.30;;
14472;SDS011;7322;50.872;4.386;2024-01-25T01:52:58;12.37;;;4.30;;
14472;SDS011;7322;50.872;4.386;2024-01-25T01:55:26;11.43;;;4.33;;
14472;SDS011;7322;50.872;4.386;2024-01-25T01:57:54;9.37;;;3.97;;
14472;SDS011;7322;50.872;4.386;2024-01-25T02:00:23;10.57;;;4.30;;
14472;SDS011;7322;50.872;4.386;2024-01-25T02:02:51;9.70;;;4.17;;
14472;SDS011;7322;50.872;4.386;2024-01-25T02:05:21;10.07;;;3.90;;
14472;SDS011;7322;50.872;4.386;2024-01-25T02:07:50;8.60;;;4.00;;
14472;SDS011;7322;50.872;4.386;2024-01-25T02:12:52;10.47;;;4.20;;
14472;SDS011;7322;50.872;4.386;2024-01-25T02:15:19;10.43;;;4.07;;
14472;SDS011;7322;50.872;4.386;2024-01-25T02:17:48;12.00;;;4.27;;
14472;SDS011;7322;50.872;4.386;2024-01-25T02:20:17;10.70;;;4.03;;
14472;SDS011;7322;50.872;4.386;2024-01-25T02:22:46;11.40;;;4.23;;
14472;SDS011;7322;50.872;4.386;2024-01-25T02:25:14;10.93;;;4.33;;
14472;SDS011;7322;50.872;4.386;2024-01-25T02:27:41;9.60;;;3.90;;
14472;SDS011;7322;50.872;4.386;2024-01-25T02:30:08;12.10;;;3.93;;
14472;SDS011;7322;50.872;4.386;2024-01-25T02:32:37;10.80;;;3.90;;
14472;SDS011;7322;50.872;4.386;2024-01-25T02:35:05;12.07;;;4.20;;
14472;SDS011;7322;50.872;4.386;2024-01-25T02:37:32;11.27;;;4.00;;
14472;SDS011;7322;50.872;4.386;2024-01-25T02:40:03;10.60;;;3.77;;
14472;SDS011;7322;50.872;4.386;2024-01-25T02:42:32;11.67;;;3.97;;
14472;SDS011;7322;50.872;4.386;2024-01-25T02:45:00;9.80;;;4.00;;
14472;SDS011;7322;50.872;4.386;2024-01-25T02:47:28;10.87;;;4.27;;
14472;SDS011;7322;50.872;4.386;2024-01-25T02:49:55;10.37;;;3.97;;
14472;SDS011;7322;50.872;4.386;2024-01-25T02:52:22;11.53;;;4.30;;
14472;SDS011;7322;50.872;4.386;2024-01-25T02:54:50;9.13;;;3.47;;
14472;SDS011;7322;50.872;4.386;2024-01-25T02:57:19;9.77;;;3.70;;
14472;SDS011;7322;50.872;4.386;2024-01-25T02:59:47;10.70;;;4.20;;
14472;SDS011;7322;50.872;4.386;2024-01-25T03:02:15;12.00;;;4.57;;
14472;SDS011;7322;50.872;4.386;2024-01-25T03:04:46;10.50;;;4.13;;
14472;SDS011;7322;50.872;4.386;2024-01-25T03:07:19;11.73;;;4.20;;
14472;SDS011;7322;50.872;4.386;2024-01-25T03:09:49;9.63;;;4.07;;
14472;SDS011;7322;50.872;4.386;2024-01-25T03:12:21;9.50;;;4.00;;
14472;SDS011;7322;50.872;4.386;2024-01-25T03:14:56;10.67;;;4.17;;
14472;SDS011;7322;50.872;4.386;2024-01-25T03:17:25;8.70;;;3.57;;
14472;SDS011;7322;50.872;4.386;2024-01-25T03:19:53;8.70;;;4.03;;
14472;SDS011;7322;50.872;4.386;2024-01-25T03:24:54;10.50;;;4.03;;
14472;SDS011;7322;50.872;4.386;2024-01-25T03:32:54;7.87;;;3.43;;
14472;SDS011;7322;50.872;4.386;2024-01-25T03:35:21;7.77;;;3.70;;
14472;SDS011;7322;50.872;4.386;2024-01-25T03:40:24;10.80;;;4.27;;
14472;SDS011;7322;50.872;4.386;2024-01-25T03:43:10;9.83;;;4.00;;
14472;SDS011;7322;50.872;4.386;2024-01-25T03:45:38;9.60;;;3.60;;
14472;SDS011;7322;50.872;4.386;2024-01-25T03:48:05;9.20;;;3.57;;
14472;SDS011;7322;50.872;4.386;2024-01-25T03:50:36;9.50;;;3.93;;
14472;SDS011;7322;50.872;4.386;2024-01-25T03:53:03;8.47;;;3.73;;
14472;SDS011;7322;50.872;4.386;2024-01-25T03:55:31;10.13;;;4.40;;
14472;SDS011;7322;50.872;4.386;2024-01-25T03:58:00;8.80;;;3.57;;
14472;SDS011;7322;50.872;4.386;2024-01-25T04:00:28;9.70;;;3.83;;
14472;SDS011;7322;50.872;4.386;2024-01-25T04:02:55;11.00;;;4.10;;
14472;SDS011;7322;50.872;4.386;2024-01-25T04:05:23;10.17;;;4.00;;
14472;SDS011;7322;50.872;4.386;2024-01-25T04:07:52;10.97;;;3.70;;
14472;SDS011;7322;50.872;4.386;2024-01-25T04:10:20;9.33;;;3.70;;
14472;SDS011;7322;50.872;4.386;2024-01-25T04:12:48;10.73;;;3.93;;
14472;SDS011;7322;50.872;4.386;2024-01-25T04:15:17;12.40;;;3.83;;
14472;SDS011;7322;50.872;4.386;2024-01-25T04:17:47;10.07;;;3.90;;
14472;SDS011;7322;50.872;4.386;2024-01-25T04:20:15;8.33;;;3.73;;
14472;SDS011;7322;50.872;4.386;2024-01-25T04:22:44;11.33;;;4.20;;
14472;SDS011;7322;50.872;4.386;2024-01-25T04:25:15;8.60;;;3.37;;
14472;SDS011;7322;50.872;4.386;2024-01-25T04:27:48;10.63;;;3.83;;
14472;SDS011;7322;50.872;4.386;2024-01-25T04:30:15;9.90;;;3.70;;
14472;SDS011;7322;50.872;4.386;2024-01-25T04:32:42;9.73;;;3.93;;
14472;SDS011;7322;50.872;4.386;2024-01-25T04:35:11;11.43;;;3.97;;
14472;SDS011;7322;50.872;4.386;2024-01-25T04:37:38;10.20;;;3.87;;
14472;SDS011;7322;50.872;4.386;2024-01-25T04:40:07;9.97;;;3.97;;
14472;SDS011;7322;50.872;4.386;2024-01-25T04:42:36;11.43;;;3.93;;
14472;SDS011;7322;50.872;4.386;2024-01-25T04:45:04;9.97;;;3.77;;
14472;SDS011;7322;50.872;4.386;2024-01-25T04:47:32;8.63;;;3.47;;
14472;SDS011;7322;50.872;4.386;2024-01-25T04:50:01;10.43;;;3.40;;
14472;SDS011;7322;50.872;4.386;2024-01-25T04:52:29;9.63;;;3.87;;
14472;SDS011;7322;50.872;4.386;2024-01-25T04:54:56;8.63;;;3.47;;
14472;SDS011;7322;50.872;4.386;2024-01-25T04:57:23;11.20;;;4.37;;
14472;SDS011;7322;50.872;4.386;2024-01-25T04:59:50;8.50;;;3.63;;
14472;SDS011;7322;50.872;4.386;2024-01-25T05:02:18;10.23;;;3.70;;
14472;SDS011;7322;50.872;4.386;2024-01-25T05:04:45;8.87;;;3.63;;
14472;SDS011;7322;50.872;4.386;2024-01-25T05:07:12;9.80;;;3.90;;
14472;SDS011;7322;50.872;4.386;2024-01-25T05:09:42;10.60;;;3.80;;
14472;SDS011;7322;50.872;4.386;2024-01-25T05:12:11;9.47;;;4.03;;
14472;SDS011;7322;50.872;4.386;2024-01-25T05:14:38;7.97;;;3.57;;
14472;SDS011;7322;50.872;4.386;2024-01-25T05:17:06;8.40;;;3.30;;
14472;SDS011;7322;50.872;4.386;2024-01-25T05:19:34;13.43;;;4.30;;
14472;SDS011;7322;50.872;4.386;2024-01-25T05:22:02;10.90;;;4.30;;
14472;SDS011;7322;50.872;4.386;2024-01-25T05:24:32;9.07;;;3.53;;
14472;SDS011;7322;50.872;4.386;2024-01-25T05:27:00;8.83;;;3.77;;
14472;SDS011;7322;50.872;4.386;2024-01-25T05:29:29;8.80;;;3.83;;
14472;SDS011;7322;50.872;4.386;2024-01-25T05:31:56;9.27;;;3.73;;
14472;SDS011;7322;50.872;4.386;2024-01-25T05:34:24;9.53;;;3.73;;
14472;SDS011;7322;50.872;4.386;2024-01-25T05:36:51;8.73;;;3.60;;
14472;SDS011;7322;50.872;4.386;2024-01-25T05:39:19;10.13;;;3.77;;
14472;SDS011;7322;50.872;4.386;2024-01-25T05:41:46;8.93;;;3.87;;
14472;SDS011;7322;50.872;4.386;2024-01-25T05:44:15;8.70;;;4.00;;
14472;SDS011;7322;50.872;4.386;2024-01-25T05:46:43;8.87;;;3.83;;
14472;SDS011;7322;50.872;4.386;2024-01-25T05:49:11;9.73;;;4.10;;
14472;SDS011;7322;50.872;4.386;2024-01-25T05:51:39;8.57;;;3.70;;
14472;SDS011;7322;50.872;4.386;2024-01-25T05:54:06;10.00;;;3.60;;
14472;SDS011;7322;50.872;4.386;2024-01-25T05:56:41;7.00;;;3.27;;
14472;SDS011;7322;50.872;4.386;2024-01-25T06:01:57;9.73;;;3.50;;
14472;SDS011;7322;50.872;4.386;2024-01-25T06:04:24;11.67;;;3.87;;
14472;SDS011;7322;50.872;4.386;2024-01-25T06:06:51;10.17;;;3.87;;
14472;SDS011;7322;50.872;4.386;2024-01-25T06:09:18;9.40;;;3.40;;
14472;SDS011;7322;50.872;4.386;2024-01-25T06:11:45;9.00;;;3.90;;
14472;SDS011;7322;50.872;4.386;2024-01-25T06:14:13;8.10;;;3.37;;
14472;SDS011;7322;50.872;4.386;2024-01-25T06:19:19;8.60;;;3.33;;
14472;SDS011;7322;50.872;4.386;2024-01-25T06:21:46;10.90;;;3.53;;
14472;SDS011;7322;50.872;4.386;2024-01-25T06:24:17;8.67;;;3.40;;
14472;SDS011;7322;50.872;4.386;2024-01-25T06:26:49;8.80;;;3.50;;
14472;SDS011;7322;50.872;4.386;2024-01-25T06:29:16;8.43;;;3.70;;
14472;SDS011;7322;50.872;4.386;2024-01-25T06:31:43;9.67;;;3.60;;
14472;SDS011;7322;50.872;4.386;2024-01-25T06:34:13;8.67;;;3.50;;
14472;SDS011;7322;50.872;4.386;2024-01-25T06:36:39;8.60;;;3.50;;
14472;SDS011;7322;50.872;4.386;2024-01-25T06:39:07;9.03;;;3.50;;
14472;SDS011;7322;50.872;4.386;2024-01-25T06:41:36;9.23;;;3.70;;
14472;SDS011;7322;50.872;4.386;2024-01-25T06:44:05;11.43;;;3.83;;
14472;SDS011;7322;50.872;4.386;2024-01-25T06:46:32;8.57;;;3.47;;
14472;SDS011;7322;50.872;4.386;2024-01-25T06:48:59;9.30;;;3.53;;
14472;SDS011;7322;50.872;4.386;2024-01-25T06:57:38;11.70;;;4.30;;
14472;SDS011;7322;50.872;4.386;2024-01-25T07:00:07;11.40;;;4.07;;
14472;SDS011;7322;50.872;4.386;2024-01-25T07:05:08;8.83;;;4.53;;
14472;SDS011;7322;50.872;4.386;2024-01-25T07:10:07;11.57;;;4.23;;
14472;SDS011;7322;50.872;4.386;2024-01-25T07:12:36;12.20;;;4.10;;
14472;SDS011;7322;50.872;4.386;2024-01-25T07:15:03;11.23;;;4.60;;
14472;SDS011;7322;50.872;4.386;2024-01-25T07:17:31;13.80;;;5.17;;
14472;SDS011;7322;50.872;4.386;2024-01-25T07:19:58;10.77;;;4.63;;
14472;SDS011;7322;50.872;4.386;2024-01-25T07:22:25;10.43;;;4.47;;
14472;SDS011;7322;50.872;4.386;2024-01-25T07:24:53;11.67;;;4.83;;
14472;SDS011;7322;50.872;4.386;2024-01-25T07:27:20;12.03;;;4.70;;
14472;SDS011;7322;50.872;4.386;2024-01-25T07:29:47;15.47;;;4.80;;
14472;SDS011;7322;50.872;4.386;2024-01-25T07:32:14;13.07;;;4.87;;
14472;SDS011;7322;50.872;4.386;2024-01-25T07:34:43;14.87;;;4.73;;
14472;SDS011;7322;50.872;4.386;2024-01-25T07:37:13;13.67;;;4.93;;
14472;SDS011;7322;50.872;4.386;2024-01-25T07:39:42;11.87;;;4.70;;
14472;SDS011;7322;50.872;4.386;2024-01-25T07:42:10;16.47;;;5.03;;
14472;SDS011;7322;50.872;4.386;2024-01-25T07:44:37;12.07;;;4.47;;
14472;SDS011;7322;50.872;4.386;2024-01-25T07:47:04;14.47;;;4.37;;
14472;SDS011;7322;50.872;4.386;2024-01-25T07:49:37;11.70;;;5.20;;
14472;SDS011;7322;50.872;4.386;2024-01-25T07:52:07;12.97;;;4.43;;
14472;SDS011;7322;50.872;4.386;2024-01-25T07:54:34;14.50;;;4.80;;
14472;SDS011;7322;50.872;4.386;2024-01-25T07:57:06;12.57;;;4.50;;
14472;SDS011;7322;50.872;4.386;2024-01-25T07:59:35;14.23;;;4.77;;
14472;SDS011;7322;50.872;4.386;2024-01-25T08:02:04;10.37;;;4.53;;
14472;SDS011;7322;50.872;4.386;2024-01-25T08:04:31;11.47;;;5.03;;
14472;SDS011;7322;50.872;4.386;2024-01-25T08:07:00;12.60;;;5.10;;
14472;SDS011;7322;50.872;4.386;2024-01-25T08:09:27;12.43;;;5.13;;
14472;SDS011;7322;50.872;4.386;2024-01-25T08:12:01;14.53;;;5.00;;
14472;SDS011;7322;50.872;4.386;2024-01-25T08:14:41;10.20;;;4.60;;
14472;SDS011;7322;50.872;4.386;2024-01-25T08:17:17;10.90;;;4.23;;
14472;SDS011;7322;50.872;4.386;2024-01-25T08:19:44;12.77;;;4.73;;
14472;SDS011;7322;50.872;4.386;2024-01-25T08:22:11;16.17;;;5.57;;
14472;SDS011;7322;50.872;4.386;2024-01-25T08:24:40;11.67;;;4.63;;
14472;SDS011;7322;50.872;4.386;2024-01-25T08:27:19;10.43;;;4.40;;
14472;SDS011;7322;50.872;4.386;2024-01-25T08:29:49;12.60;;;4.00;;
14472;SDS011;7322;50.872;4.386;2024-01-25T08:32:16;11.37;;;4.50;;
14472;SDS011;7322;50.872;4.386;2024-01-25T08:34:50;10.63;;;4.37;;
14472;SDS011;7322;50.872;4.386;2024-01-25T08:37:17;11.47;;;4.33;;
14472;SDS011;7322;50.872;4.386;2024-01-25T08:39:51;12.40;;;4.33;;
14472;SDS011;7322;50.872;4.386;2024-01-25T08:42:27;9.87;;;4.23;;
14472;SDS011;7322;50.872;4.386;2024-01-25T08:44:56;10.77;;;4.40;;
14472;SDS011;7322;50.872;4.386;2024-01-25T08:49:57;9.93;;;4.27;;
14472;SDS011;7322;50.872;4.386;2024-01-25T08:52:30;9.80;;;3.70;;
14472;SDS011;7322;50.872;4.386;2024-01-25T08:57:53;10.07;;;4.27;;
14472;SDS011;7322;50.872;4.386;2024-01-25T09:00:29;12.73;;;4.63;;
14472;SDS011;7322;50.872;4.386;2024-01-25T09:02:57;10.17;;;3.80;;
14472;SDS011;7322;50.872;4.386;2024-01-25T09:05:24;9.17;;;4.13;;
14472;SDS011;7322;50.872;4.386;2024-01-25T09:07:54;8.57;;;4.30;;
14472;SDS011;7322;50.872;4.386;2024-01-25T09:10:21;10.70;;;3.90;;
14472;SDS011;7322;50.872;4.386;2024-01-25T09:12:55;9.70;;;3.63;;
14472;SDS011;7322;50.872;4.386;2024-01-25T09:15:31;10.70;;;4.20;;
14472;SDS011;7322;50.872;4.386;2024-01-25T09:18:05;8.87;;;3.73;;
14472;SDS011;7322;50.872;4.386;2024-01-25T09:20:34;8.00;;;3.73;;
14472;SDS011;7322;50.872;4.386;2024-01-25T09:25:33;9.17;;;4.00;;
14472;SDS011;7322;50.872;4.386;2024-01-25T09:28:09;9.20;;;3.90;;
14472;SDS011;7322;50.872;4.386;2024-01-25T09:30:46;9.00;;;3.83;;
14472;SDS011;7322;50.872;4.386;2024-01-25T09:33:14;9.40;;;4.30;;
14472;SDS011;7322;50.872;4.386;2024-01-25T09:35:43;10.60;;;3.80;;
14472;SDS011;7322;50.872;4.386;2024-01-25T09:38:12;9.77;;;4.07;;
14472;SDS011;7322;50.872;4.386;2024-01-25T09:40:40;8.37;;;4.37;;
14472;SDS011;7322;50.872;4.386;2024-01-25T09:43:08;8.40;;;3.67;;
14472;SDS011;7322;50.872;4.386;2024-01-25T09:45:35;8.53;;;4.10;;
14472;SDS011;7322;50.872;4.386;2024-01-25T09:48:05;8.93;;;4.03;;
14472;SDS011;7322;50.872;4.386;2024-01-25T09:50:34;8.10;;;4.00;;
14472;SDS011;7322;50.872;4.386;2024-01-25T09:53:06;10.07;;;4.20;;
14472;SDS011;7322;50.872;4.386;2024-01-25T09:55:38;10.97;;;4.27;;
14472;SDS011;7322;50.872;4.386;2024-01-25T10:00:42;9.30;;;4.53;;
14472;SDS011;7322;50.872;4.386;2024-01-25T10:03:10;8.77;;;4.20;;
14472;SDS011;7322;50.872;4.386;2024-01-25T10:05:37;7.03;;;4.07;;
14472;SDS011;7322;50.872;4.386;2024-01-25T10:08:15;6.73;;;3.53;;
14472;SDS011;7322;50.872;4.386;2024-01-25T10:10:44;8.33;;;4.43;;
14472;SDS011;7322;50.872;4.386;2024-01-25T10:13:13;11.13;;;4.30;;
14472;SDS011;7322;50.872;4.386;2024-01-25T10:15:40;9.43;;;4.30;;
14472;SDS011;7322;50.872;4.386;2024-01-25T10:18:21;10.87;;;3.90;;
14472;SDS011;7322;50.872;4.386;2024-01-25T10:20:50;9.63;;;4.23;;
14472;SDS011;7322;50.872;4.386;2024-01-25T10:23:20;9.90;;;4.47;;
14472;SDS011;7322;50.872;4.386;2024-01-25T10:25:55;8.13;;;4.17;;
14472;SDS011;7322;50.872;4.386;2024-01-25T10:28:23;7.77;;;4.23;;
14472;SDS011;7322;50.872;4.386;2024-01-25T10:30:55;9.10;;;4.70;;
14472;SDS011;7322;50.872;4.386;2024-01-25T10:33:24;8.03;;;4.37;;
14472;SDS011;7322;50.872;4.386;2024-01-25T10:35:59;7.90;;;4.30;;
14472;SDS011;7322;50.872;4.386;2024-01-25T10:38:29;7.20;;;4.40;;
14472;SDS011;7322;50.872;4.386;2024-01-25T10:41:05;8.70;;;4.20;;
14472;SDS011;7322;50.872;4.386;2024-01-25T10:43:39;8.07;;;4.13;;
14472;SDS011;7322;50.872;4.386;2024-01-25T10:46:07;7.93;;;4.57;;
14472;SDS011;7322;50.872;4.386;2024-01-25T10:51:27;9.87;;;4.43;;
14472;SDS011;7322;50.872;4.386;2024-01-25T10:53:56;7.70;;;3.87;;
14472;SDS011;7322;50.872;4.386;2024-01-25T10:56:28;9.13;;;4.50;;
14472;SDS011;7322;50.872;4.386;2024-01-25T11:04:51;8.60;;;4.33;;
14472;SDS011;7322;50.872;4.386;2024-01-25T11:07:21;7.47;;;3.93;;
14472;SDS011;7322;50.872;4.386;2024-01-25T11:09:56;8.40;;;4.40;;
14472;SDS011;7322;50.872;4.386;2024-01-25T11:12:35;7.70;;;4.30;;
14472;SDS011;7322;50.872;4.386;2024-01-25T11:18:32;9.33;;;4.50;;
14472;SDS011;7322;50.872;4.386;2024-01-25T11:24:11;8.20;;;4.50;;
14472;SDS011;7322;50.872;4.386;2024-01-25T11:26:53;8.57;;;4.60;;
14472;SDS011;7322;50.872;4.386;2024-01-25T11:32:08;7.13;;;3.97;;
14472;SDS011;7322;50.872;4.386;2024-01-25T11:34:36;7.23;;;4.40;;
14472;SDS011;7322;50.872;4.386;2024-01-25T11:45:52;8.40;;;4.43;;
14472;SDS011;7322;50.872;4.386;2024-01-25T11:48:28;8.40;;;4.93;;
14472;SDS011;7322;50.872;4.386;2024-01-25T11:54:12;8.80;;;4.23;;
14472;SDS011;7322;50.872;4.386;2024-01-25T11:56:42;9.50;;;4.40;;
14472;SDS011;7322;50.872;4.386;2024-01-25T11:59:10;6.30;;;3.87;;
14472;SDS011;7322;50.872;4.386;2024-01-25T12:01:45;6.60;;;4.13;;
14472;SDS011;7322;50.872;4.386;2024-01-25T12:04:12;7.60;;;4.43;;
14472;SDS011;7322;50.872;4.386;2024-01-25T12:06:47;8.97;;;4.70;;
14472;SDS011;7322;50.872;4.386;2024-01-25T12:09:17;6.73;;;4.30;;
14472;SDS011;7322;50.872;4.386;2024-01-25T12:14:17;8.53;;;4.30;;
14472;SDS011;7322;50.872;4.386;2024-01-25T12:16:54;8.33;;;4.83;;
14472;SDS011;7322;50.872;4.386;2024-01-25T12:19:22;6.90;;;4.30;;
14472;SDS011;7322;50.872;4.386;2024-01-25T12:21:50;7.27;;;4.20;;
14472;SDS011;7322;50.872;4.386;2024-01-25T12:24:22;7.40;;;4.53;;
14472;SDS011;7322;50.872;4.386;2024-01-25T12:26:51;7.20;;;4.10;;
14472;SDS011;7322;50.872;4.386;2024-01-25T12:29:19;8.37;;;4.63;;
14472;SDS011;7322;50.872;4.386;2024-01-25T12:31:54;8.70;;;4.30;;
14472;SDS011;7322;50.872;4.386;2024-01-25T12:34:30;7.33;;;4.03;;
14472;SDS011;7322;50.872;4.386;2024-01-25T12:36:58;6.60;;;4.13;;
14472;SDS011;7322;50.872;4.386;2024-01-25T12:39:28;7.33;;;4.13;;
14472;SDS011;7322;50.872;4.386;2024-01-25T12:41:56;8.67;;;4.53;;
14472;SDS011;7322;50.872;4.386;2024-01-25T12:44:23;6.50;;;4.30;;
14472;SDS011;7322;50.872;4.386;2024-01-25T12:46:50;6.13;;;3.63;;
14472;SDS011;7322;50.872;4.386;2024-01-25T12:49:17;8.20;;;4.50;;
14472;SDS011;7322;50.872;4.386;2024-01-25T12:51:46;6.47;;;4.07;;
14472;SDS011;7322;50.872;4.386;2024-01-25T12:54:15;6.73;;;4.13;;
14472;SDS011;7322;50.872;4.386;2024-01-25T12:56:46;8.13;;;4.73;;
14472;SDS011;7322;50.872;4.386;2024-01-25T12:59:13;6.93;;;4.47;;
14472;SDS011;7322;50.872;4.386;2024-01-25T13:01:41;8.47;;;4.13;;
14472;SDS011;7322;50.872;4.386;2024-01-25T13:04:08;6.03;;;4.13;;
14472;SDS011;7322;50.872;4.386;2024-01-25T13:06:36;6.33;;;4.20;;
14472;SDS011;7322;50.872;4.386;2024-01-25T13:09:03;9.03;;;4.30;;
14472;SDS011;7322;50.872;4.386;2024-01-25T13:11:31;6.27;;;3.77;;
14472;SDS011;7322;50.872;4.386;2024-01-25T13:13:59;7.53;;;4.53;;
14472;SDS011;7322;50.872;4.386;2024-01-25T13:16:26;7.07;;;4.10;;
14472;SDS011;7322;50.872;4.386;2024-01-25T13:18:55;8.40;;;4.27;;
14472;SDS011;7322;50.872;4.386;2024-01-25T13:21:22;7.03;;;3.93;;
14472;SDS011;7322;50.872;4.386;2024-01-25T13:23:49;6.97;;;3.90;;
14472;SDS011;7322;50.872;4.386;2024-01-25T13:26:16;7.30;;;4.20;;
14472;SDS011;7322;50.872;4.386;2024-01-25T13:28:43;7.37;;;4.27;;
14472;SDS011;7322;50.872;4.386;2024-01-25T13:31:12;5.97;;;4.37;;
14472;SDS011;7322;50.872;4.386;2024-01-25T13:33:39;7.83;;;4.37;;
14472;SDS011;7322;50.872;4.386;2024-01-25T13:36:06;6.37;;;4.10;;
14472;SDS011;7322;50.872;4.386;2024-01-25T13:38:36;5.40;;;3.70;;
14472;SDS011;7322;50.872;4.386;2024-01-25T13:41:03;6.23;;;3.70;;
14472;SDS011;7322;50.872;4.386;2024-01-25T13:43:31;7.80;;;4.17;;
14472;SDS011;7322;50.872;4.386;2024-01-25T13:45:58;6.37;;;3.70;;
14472;SDS011;7322;50.872;4.386;2024-01-25T13:48:27;7.23;;;4.20;;
14472;SDS011;7322;50.872;4.386;2024-01-25T13:50:54;6.07;;;3.60;;
14472;SDS011;7322;50.872;4.386;2024-01-25T13:53:22;5.73;;;3.73;;
14472;SDS011;7322;50.872;4.386;2024-01-25T13:55:49;5.60;;;4.00;;
14472;SDS011;7322;50.872;4.386;2024-01-25T13:58:16;6.63;;;3.73;;
14472;SDS011;7322;50.872;4.386;2024-01-25T14:00:43;5.80;;;3.53;;
14472;SDS011;7322;50.872;4.386;2024-01-25T14:03:10;6.27;;;3.60;;
14472;SDS011;7322;50.872;4.386;2024-01-25T14:05:40;5.83;;;3.60;;
14472;SDS011;7322;50.872;4.386;2024-01-25T14:08:07;6.20;;;3.80;;
14472;SDS011;7322;50.872;4.386;2024-01-25T14:10:34;6.13;;;3.77;;
14472;SDS011;7322;50.872;4.386;2024-01-25T14:13:01;6.63;;;3.47;;
14472;SDS011;7322;50.872;4.386;2024-01-25T14:15:29;6.97;;;3.80;;
14472;SDS011;7322;50.872;4.386;2024-01-25T14:17:56;4.10;;;3.40;;
14472;SDS011;7322;50.872;4.386;2024-01-25T14:20:23;5.37;;;3.17;;
14472;SDS011;7322;50.872;4.386;2024-01-25T14:22:51;5.60;;;3.27;;
14472;SDS011;7322;50.872;4.386;2024-01-25T14:25:18;4.67;;;3.37;;
14472;SDS011;7322;50.872;4.386;2024-01-25T14:27:45;5.20;;;3.33;;
14472;SDS011;7322;50.872;4.386;2024-01-25T14:30:14;5.87;;;3.40;;
14472;SDS011;7322;50.872;4.386;2024-01-25T14:32:41;5.90;;;3.47;;
14472;SDS011;7322;50.872;4.386;2024-01-25T14:35:08;5.93;;;3.63;;
14472;SDS011;7322;50.872;4.386;2024-01-25T14:37:35;6.07;;;3.70;;
14472;SDS011;7322;50.872;4.386;2024-01-25T14:40:05;5.03;;;3.60;;
14472;SDS011;7322;50.872;4.386;2024-01-25T14:42:33;6.73;;;3.37;;
14472;SDS011;7322;50.872;4.386;2024-01-25T14:45:00;5.47;;;3.37;;
14472;SDS011;7322;50.872;4.386;2024-01-25T14:47:28;5.43;;;3.80;;
14472;SDS011;7322;50.872;4.386;2024-01-25T14:49:55;5.93;;;3.70;;
14472;SDS011;7322;50.872;4.386;2024-01-25T14:52:22;5.53;;;3.53;;
14472;SDS011;7322;50.872;4.386;2024-01-25T14:54:49;4.97;;;3.43;;
14472;SDS011;7322;50.872;4.386;2024-01-25T14:57:17;5.10;;;3.37;;
14472;SDS011;7322;50.872;4.386;2024-01-25T14:59:44;4.80;;;3.50;;
14472;SDS011;7322;50.872;4.386;2024-01-25T15:02:12;4.70;;;3.10;;
14472;SDS011;7322;50.872;4.386;2024-01-25T15:04:39;5.73;;;3.50;;
14472;SDS011;7322;50.872;4.386;2024-01-25T15:07:06;4.50;;;3.10;;
14472;SDS011;7322;50.872;4.386;2024-01-25T15:09:33;4.00;;;3.17;;
14472;SDS011;7322;50.872;4.386;2024-01-25T15:12:00;5.50;;;3.10;;
14472;SDS011;7322;50.872;4.386;2024-01-25T15:14:28;4.37;;;3.23;;
14472;SDS011;7322;50.872;4.386;2024-01-25T15:16:55;5.40;;;3.43;;
14472;SDS011;7322;50.872;4.386;2024-01-25T15:19:22;4.37;;;3.17;;
14472;SDS011;7322;50.872;4.386;2024-01-25T15:21:49;3.47;;;2.90;;
14472;SDS011;7322;50.872;4.386;2024-01-25T15:24:16;4.73;;;3.13;;
14472;SDS011;7322;50.872;4.386;2024-01-25T15:26:43;3.73;;;2.90;;
14472;SDS011;7322;50.872;4.386;2024-01-25T15:29:10;4.70;;;3.20;;
14472;SDS011;7322;50.872;4.386;2024-01-25T15:31:39;4.63;;;3.10;;
14472;SDS011;7322;50.872;4.386;2024-01-25T15:34:06;5.47;;;3.20;;
14472;SDS011;7322;50.872;4.386;2024-01-25T15:36:33;4.10;;;2.90;;
14472;SDS011;7322;50.872;4.386;2024-01-25T15:39:00;3.93;;;2.90;;
14472;SDS011;7322;50.872;4.386;2024-01-25T15:41:28;4.07;;;3.20;;
14472;SDS011;7322;50.872;4.386;2024-01-25T15:43:55;4.03;;;2.63;;
14472;SDS011;7322;50.872;4.386;2024-01-25T15:46:22;5.23;;;3.07;;
14472;SDS011;7322;50.872;4.386;2024-01-25T15:48:51;3.87;;;2.77;;
14472;SDS011;7322;50.872;4.386;2024-01-25T15:51:19;3.77;;;2.90;;
14472;SDS011;7322;50.872;4.386;2024-01-25T15:53:46;4.53;;;3.23;;
14472;SDS011;7322;50.872;4.386;2024-01-25T15:56:14;3.77;;;2.70;;
14472;SDS011;7322;50.872;4.386;2024-01-25T15:58:41;3.27;;;2.70;;
14472;SDS011;7322;50.872;4.386;2024-01-25T16:01:08;4.27;;;2.90;;
14472;SDS011;7322;50.872;4.386;2024-01-25T16:03:35;3.27;;;2.67;;
14472;SDS011;7322;50.872;4.386;2024-01-25T16:06:05;3.80;;;2.70;;
14472;SDS011;7322;50.872;4.386;2024-01-25T16:08:32;3.70;;;3.03;;
14472;SDS011;7322;50.872;4.386;2024-01-25T16:11:00;3.90;;;2.60;;
14472;SDS011;7322;50.872;4.386;2024-01-25T16:13:29;3.73;;;2.90;;
14472;SDS011;7322;50.872;4.386;2024-01-25T16:15:56;3.63;;;2.73;;
14472;SDS011;7322;50.872;4.386;2024-01-25T16:18:23;2.87;;;2.50;;